Time;durP1;ratioP1;P1;durP2;ratioP2;P2;SDS_P1;SDS_P2;PMS_P1;PMS_P2;Temp;Humidity;BMP_temperature;BMP_pressure;BME280_temperature;BME280_humidity;BME280_pressure;Samples;Min_cycle;Max_cycle;Signal;HPM_P1;HPM_P2
2022/11/27 00:02:14;;;;;;;29.35;14.60;;;1.50;99.90;;;;;;5073465;28;20032;-80
2022/11/27 00:04:40;;;;;;;22.27;14.02;;;1.30;99.90;;;;;;5072923;28;20028;-81
2022/11/27 00:07:06;;;;;;;25.10;14.35;;;1.30;99.90;;;;;;5073459;28;20037;-81
2022/11/27 00:09:32;;;;;;;24.02;13.43;;;1.30;99.90;;;;;;5092482;28;20039;-80
2022/11/27 00:11:58;;;;;;;22.00;13.50;;;1.30;99.90;;;;;;5092654;28;20032;-81
2022/11/27 00:14:24;;;;;;;22.70;11.95;;;1.20;99.90;;;;;;5092297;28;20473;-79
2022/11/27 00:16:51;;;;;;;22.83;12.48;;;1.10;99.90;;;;;;5089184;28;20264;-80
2022/11/27 00:19:17;;;;;;;23.38;12.20;;;1.10;99.90;;;;;;5092743;28;20039;-79
2022/11/27 00:21:43;;;;;;;23.60;12.50;;;1.00;99.90;;;;;;5080614;28;20051;-81
2022/11/27 00:24:10;;;;;;;23.50;11.88;;;1.00;99.90;;;;;;5079138;28;20032;-80
2022/11/27 00:26:37;;;;;;;25.23;12.73;;;1.10;99.90;;;;;;5090113;28;20039;-79
2022/11/27 00:29:03;;;;;;;20.35;12.35;;;1.10;99.90;;;;;;5078928;28;20033;-80
2022/11/27 00:31:31;;;;;;;22.00;12.88;;;1.00;99.90;;;;;;5084247;28;20024;-80
2022/11/27 00:34:00;;;;;;;23.85;12.88;;;1.00;99.90;;;;;;5078791;28;20044;-80
2022/11/27 00:36:28;;;;;;;24.00;13.10;;;0.90;99.90;;;;;;5070667;28;20044;-80
2022/11/27 00:38:54;;;;;;;28.23;13.27;;;0.80;99.90;;;;;;5072157;28;20035;-80
2022/11/27 00:41:23;;;;;;;24.77;12.63;;;0.90;99.90;;;;;;5072907;28;20385;-81
2022/11/27 00:43:51;;;;;;;22.65;12.77;;;0.80;99.90;;;;;;5090069;28;20028;-80
2022/11/27 00:46:19;;;;;;;24.88;13.27;;;0.80;99.90;;;;;;5090725;28;20029;-80
2022/11/27 00:48:45;;;;;;;25.75;12.05;;;0.80;99.90;;;;;;5073520;28;20025;-80
2022/11/27 00:51:15;;;;;;;21.13;12.63;;;0.70;99.90;;;;;;5072592;28;20055;-80
2022/11/27 00:53:42;;;;;;;25.63;12.93;;;0.70;99.90;;;;;;5071874;28;20493;-80
2022/11/27 00:56:13;;;;;;;21.80;12.68;;;0.70;99.90;;;;;;5071145;28;20040;-80
2022/11/27 00:58:39;;;;;;;25.00;12.80;;;0.70;99.90;;;;;;5076347;28;20055;-80
2022/11/27 01:01:06;;;;;;;26.27;12.18;;;0.70;99.90;;;;;;5068873;28;20071;-80
2022/11/27 01:03:33;;;;;;;22.15;12.93;;;0.70;99.90;;;;;;5089433;28;20035;-80
2022/11/27 01:06:04;;;;;;;24.77;11.15;;;0.60;99.90;;;;;;5084418;28;20036;-80
2022/11/27 01:08:32;;;;;;;28.77;11.50;;;0.60;99.90;;;;;;5072339;28;20036;-81
2022/11/27 01:10:58;;;;;;;22.52;12.90;;;0.50;99.90;;;;;;5082052;28;20043;-82
2022/11/27 01:13:28;;;;;;;24.55;11.93;;;0.50;99.90;;;;;;5091765;28;20039;-81
2022/11/27 01:16:05;;;;;;;23.83;10.80;;;0.50;99.90;;;;;;5083049;28;20216;-81
2022/11/27 01:18:33;;;;;;;22.73;11.85;;;0.50;99.90;;;;;;5091521;28;20036;-81
2022/11/27 01:21:00;;;;;;;22.15;11.93;;;0.40;99.90;;;;;;5091293;28;20054;-81
2022/11/27 01:23:26;;;;;;;24.02;11.82;;;0.30;99.90;;;;;;5091858;28;20028;-81
2022/11/27 01:25:53;;;;;;;25.17;12.15;;;0.30;99.90;;;;;;5090125;28;20036;-81
2022/11/27 01:28:21;;;;;;;20.92;12.10;;;0.30;99.90;;;;;;5091171;28;20032;-81
2022/11/27 01:30:47;;;;;;;23.08;11.93;;;0.30;99.90;;;;;;5073425;28;20032;-81
2022/11/27 01:33:13;;;;;;;21.05;11.45;;;0.30;99.90;;;;;;5071135;28;20055;-81
2022/11/27 01:35:40;;;;;;;26.83;12.27;;;0.20;99.90;;;;;;5071155;28;20031;-80
2022/11/27 01:38:06;;;;;;;25.52;12.10;;;0.10;99.90;;;;;;5071305;28;20041;-81
2022/11/27 01:40:32;;;;;;;25.52;12.43;;;0.10;99.90;;;;;;5072041;28;20037;-81
2022/11/27 01:42:58;;;;;;;24.35;12.23;;;0.10;99.90;;;;;;5074100;28;20028;-81
2022/11/27 01:45:24;;;;;;;38.95;20.60;;;0.10;99.90;;;;;;5076492;28;20036;-81
2022/11/27 01:48:01;;;;;;;50.47;23.65;;;0.00;99.90;;;;;;5074372;28;20062;-81
2022/11/27 01:50:32;;;;;;;40.10;17.58;;;0.00;99.90;;;;;;5076284;28;20378;-81
2022/11/27 01:53:17;;;;;;;30.08;14.82;;;-0.10;99.90;;;;;;5091554;28;20028;-81
2022/11/27 01:55:52;;;;;;;50.20;25.75;;;-0.20;99.90;;;;;;5094003;28;20032;-80
2022/11/27 01:58:25;;;;;;;87.45;41.97;;;-0.10;99.90;;;;;;5087609;28;20036;-81
2022/11/27 02:00:52;;;;;;;93.88;45.75;;;-0.20;99.90;;;;;;5087276;28;20048;-81
2022/11/27 02:03:18;;;;;;;64.95;34.72;;;-0.20;99.90;;;;;;5075542;28;20029;-81
2022/11/27 02:05:44;;;;;;;34.95;19.90;;;-0.10;99.90;;;;;;5084191;28;20044;-80
2022/11/27 02:08:14;;;;;;;32.97;16.92;;;-0.20;99.90;;;;;;5067275;28;20417;-81
2022/11/27 02:11:05;;;;;;;30.15;16.38;;;-0.30;99.90;;;;;;5074807;28;20028;-80
2022/11/27 02:14:02;;;;;;;30.30;17.38;;;-0.40;99.90;;;;;;5071556;28;20378;-81
2022/11/27 02:16:35;;;;;;;32.55;16.20;;;-0.40;99.90;;;;;;5074580;28;20032;-80
2022/11/27 02:19:10;;;;;;;29.88;14.63;;;-0.40;99.90;;;;;;5073510;28;20385;-81
2022/11/27 02:21:46;;;;;;;33.72;14.75;;;-0.30;99.90;;;;;;5076582;28;20029;-80
2022/11/27 02:24:32;;;;;;;35.67;16.05;;;-0.40;99.90;;;;;;5074064;28;20048;-81
2022/11/27 02:27:16;;;;;;;30.17;15.48;;;-0.40;99.90;;;;;;5073741;28;20266;-81
2022/11/27 02:29:46;;;;;;;28.00;12.65;;;-0.50;99.90;;;;;;5074810;28;20488;-80
2022/11/27 02:32:24;;;;;;;25.10;12.50;;;-0.50;99.90;;;;;;5073310;28;20367;-81
2022/11/27 02:35:03;;;;;;;27.67;12.50;;;-0.60;99.90;;;;;;5073793;28;20032;-81
2022/11/27 02:37:45;;;;;;;26.20;12.15;;;-0.50;99.90;;;;;;5088169;28;20039;-81
2022/11/27 02:40:33;;;;;;;25.13;12.63;;;-0.60;99.90;;;;;;5075431;28;20103;-81
2022/11/27 02:43:13;;;;;;;29.55;14.75;;;-0.60;99.90;;;;;;5074482;28;20032;-81
2022/11/27 02:45:46;;;;;;;26.52;14.00;;;-0.50;99.90;;;;;;5074319;28;20028;-79
2022/11/27 02:48:15;;;;;;;30.27;13.50;;;-0.50;99.90;;;;;;5074736;28;20358;-81
2022/11/27 02:50:44;;;;;;;30.13;14.38;;;-0.60;99.90;;;;;;5074482;28;20044;-80
2022/11/27 02:53:16;;;;;;;30.38;14.88;;;-0.50;99.90;;;;;;5076828;28;20028;-80
2022/11/27 02:55:43;;;;;;;28.42;13.88;;;-0.50;99.90;;;;;;5084540;28;20381;-80
2022/11/27 02:58:14;;;;;;;28.95;14.27;;;-0.50;99.90;;;;;;5074078;28;20032;-81
2022/11/27 03:00:43;;;;;;;29.40;13.88;;;-0.50;99.90;;;;;;5091313;28;20060;-80
2022/11/27 03:03:13;;;;;;;30.92;13.07;;;-0.50;99.90;;;;;;5087863;28;20032;-81
2022/11/27 03:05:42;;;;;;;32.97;14.80;;;-0.50;99.90;;;;;;5087536;28;20035;-80
2022/11/27 03:08:39;;;;;;;27.95;15.27;;;-0.50;99.90;;;;;;5080698;28;20032;-81
2022/11/27 03:11:11;;;;;;;43.10;14.98;;;-0.40;99.90;;;;;;5068975;28;20055;-81
2022/11/27 03:13:42;;;;;;;40.88;16.63;;;-0.30;99.90;;;;;;5074066;28;20032;-81
2022/11/27 03:16:33;;;;;;;60.58;18.58;;;-0.30;99.90;;;;;;5067092;28;20033;-81
2022/11/27 03:19:39;;;;;;;46.67;15.27;;;-0.30;99.90;;;;;;5074804;28;20048;-81
2022/11/27 03:22:05;;;;;;;49.92;21.17;;;-0.20;99.90;;;;;;5073269;28;20033;-81
2022/11/27 03:24:34;;;;;;;62.50;20.88;;;-0.10;99.90;;;;;;5083337;28;20389;-81
2022/11/27 03:27:01;;;;;;;43.58;19.30;;;-0.10;99.90;;;;;;5076532;28;20031;-81
2022/11/27 03:29:38;;;;;;;53.50;19.58;;;0.00;99.90;;;;;;5096799;28;20021;-81
2022/11/27 03:32:05;;;;;;;39.95;18.73;;;0.00;99.90;;;;;;5089873;28;20037;-81
2022/11/27 03:34:31;;;;;;;50.33;20.52;;;0.00;99.90;;;;;;5074610;28;20035;-81
2022/11/27 03:36:58;;;;;;;48.80;18.88;;;0.10;99.90;;;;;;5086101;28;20032;-80
2022/11/27 03:39:24;;;;;;;47.42;20.38;;;0.10;99.90;;;;;;5078750;28;20031;-81
2022/11/27 03:42:19;;;;;;;60.72;20.73;;;0.10;99.90;;;;;;5085472;28;20039;-80
2022/11/27 03:45:24;;;;;;;55.38;20.60;;;0.10;99.90;;;;;;5092611;28;20028;-80
2022/11/27 03:48:11;;;;;;;68.00;22.30;;;0.20;99.90;;;;;;5091347;28;20047;-80
2022/11/27 03:50:45;;;;;;;66.65;22.67;;;0.20;99.90;;;;;;5093061;28;20032;-81
2022/11/27 03:53:38;;;;;;;66.45;22.52;;;0.20;99.90;;;;;;5091657;28;20028;-81
2022/11/27 03:56:41;;;;;;;67.00;23.63;;;0.30;99.90;;;;;;5074815;28;20747;-80
2022/11/27 03:59:11;;;;;;;63.22;19.98;;;0.30;99.90;;;;;;5026950;28;20056;-81
2022/11/27 04:01:38;;;;;;;62.53;22.48;;;0.40;99.90;;;;;;5091326;28;20110;-81
2022/11/27 04:04:05;;;;;;;48.50;21.52;;;0.40;99.90;;;;;;5091724;28;20039;-81
2022/11/27 04:06:31;;;;;;;47.85;20.25;;;0.50;99.90;;;;;;5070245;28;20123;-81
2022/11/27 04:08:57;;;;;;;60.67;21.60;;;0.50;99.90;;;;;;5075153;28;20032;-80
2022/11/27 04:11:23;;;;;;;51.15;22.75;;;0.60;99.90;;;;;;5077488;28;20029;-81
2022/11/27 04:13:51;;;;;;;74.15;24.13;;;0.70;99.90;;;;;;5072704;28;20055;-78
2022/11/27 04:16:18;;;;;;;61.10;23.60;;;0.80;99.90;;;;;;5071702;28;20029;-80
2022/11/27 04:18:44;;;;;;;66.03;24.20;;;0.90;99.90;;;;;;5072211;28;20043;-79
2022/11/27 04:21:13;;;;;;;57.83;23.15;;;0.90;99.90;;;;;;5073030;28;20029;-80
2022/11/27 04:23:39;;;;;;;68.72;25.02;;;0.90;99.90;;;;;;5072711;28;20036;-81
2022/11/27 04:26:05;;;;;;;64.70;24.25;;;0.90;99.90;;;;;;5082201;28;20035;-81
2022/11/27 04:28:32;;;;;;;67.93;22.13;;;0.90;99.90;;;;;;5092526;28;20043;-79
2022/11/27 04:30:58;;;;;;;91.38;25.67;;;0.90;99.90;;;;;;5091397;28;20038;-79
2022/11/27 04:33:24;;;;;;;68.60;23.52;;;0.90;99.90;;;;;;5091140;28;20028;-78
2022/11/27 04:35:51;;;;;;;59.63;23.92;;;0.90;99.90;;;;;;5089784;28;20040;-78
2022/11/27 04:38:18;;;;;;;69.55;24.80;;;0.90;99.90;;;;;;5072576;28;20047;-78
2022/11/27 04:40:44;;;;;;;103.85;30.25;;;0.90;99.90;;;;;;5087808;28;20032;-78
2022/11/27 04:43:11;;;;;;;128.55;32.55;;;1.00;99.90;;;;;;5092622;28;20035;-79
2022/11/27 04:45:38;;;;;;;99.93;28.58;;;0.90;99.90;;;;;;5076071;28;20039;-78
2022/11/27 04:48:05;;;;;;;74.20;26.25;;;0.90;99.90;;;;;;5071835;28;20111;-79
2022/11/27 04:50:31;;;;;;;91.65;27.45;;;0.90;99.90;;;;;;5072624;28;20351;-79
2022/11/27 04:52:58;;;;;;;69.47;24.67;;;0.80;99.90;;;;;;5071794;28;20036;-79
2022/11/27 04:55:24;;;;;;;66.65;25.40;;;0.80;99.90;;;;;;5072277;28;20044;-79
2022/11/27 04:57:51;;;;;;;71.10;25.42;;;0.80;99.90;;;;;;5070736;28;20047;-79
2022/11/27 05:00:17;;;;;;;55.20;22.98;;;0.70;99.90;;;;;;5072746;28;20063;-79
2022/11/27 05:02:44;;;;;;;54.30;21.92;;;0.60;99.90;;;;;;5071984;28;20400;-79
2022/11/27 05:05:10;;;;;;;53.15;22.55;;;0.60;99.90;;;;;;5091851;28;20040;-80
2022/11/27 05:07:36;;;;;;;52.75;22.10;;;0.50;99.90;;;;;;5062481;28;20043;-80
2022/11/27 05:10:04;;;;;;;62.20;23.83;;;0.40;99.90;;;;;;5076225;28;20066;-79
2022/11/27 05:12:30;;;;;;;57.50;22.52;;;0.40;99.90;;;;;;5072449;28;20065;-80
2022/11/27 05:14:56;;;;;;;56.95;23.60;;;0.40;99.90;;;;;;5068225;28;20039;-79
2022/11/27 05:17:22;;;;;;;57.92;26.10;;;0.30;99.90;;;;;;5066682;28;20040;-80
2022/11/27 05:19:48;;;;;;;50.50;22.02;;;0.30;99.90;;;;;;5068291;28;20069;-79
2022/11/27 05:22:15;;;;;;;46.88;23.80;;;0.20;99.90;;;;;;5068937;28;20051;-80
2022/11/27 05:24:41;;;;;;;40.50;19.75;;;0.10;99.90;;;;;;5069235;28;20047;-80
2022/11/27 05:27:07;;;;;;;41.55;21.50;;;0.10;99.90;;;;;;5060721;28;20107;-80
2022/11/27 05:29:33;;;;;;;45.00;21.05;;;0.20;99.90;;;;;;5049850;28;20053;-79
2022/11/27 05:31:59;;;;;;;53.58;24.38;;;0.40;99.90;;;;;;5058575;28;20390;-80
2022/11/27 05:34:25;;;;;;;49.63;23.13;;;0.50;99.90;;;;;;5069053;28;20061;-79
2022/11/27 05:36:51;;;;;;;51.40;25.65;;;0.70;99.90;;;;;;5058602;28;20047;-80
2022/11/27 05:39:18;;;;;;;64.47;24.48;;;0.90;99.90;;;;;;5049741;28;20056;-79
2022/11/27 05:41:44;;;;;;;58.50;26.10;;;1.00;99.90;;;;;;5068374;28;20059;-80
2022/11/27 05:44:12;;;;;;;67.53;26.83;;;1.00;99.90;;;;;;5060357;28;20040;-79
2022/11/27 05:46:39;;;;;;;94.95;28.80;;;1.10;99.90;;;;;;5079457;28;20393;-79
2022/11/27 05:49:05;;;;;;;79.65;28.13;;;1.20;99.90;;;;;;5078948;28;20788;-79
2022/11/27 05:51:31;;;;;;;76.53;25.95;;;1.20;99.90;;;;;;5084786;28;20381;-79
2022/11/27 05:53:57;;;;;;;67.72;27.90;;;1.20;99.90;;;;;;5071430;28;20033;-79
2022/11/27 05:56:24;;;;;;;66.85;28.40;;;1.20;99.90;;;;;;5070430;28;20472;-79
2022/11/27 05:58:50;;;;;;;71.72;26.80;;;1.20;99.90;;;;;;5064262;28;20041;-79
2022/11/27 06:01:18;;;;;;;70.10;27.35;;;1.20;99.90;;;;;;5071651;28;20033;-79
2022/11/27 06:03:44;;;;;;;77.75;27.83;;;1.20;99.90;;;;;;5072005;28;20032;-79
2022/11/27 06:06:14;;;;;;;78.20;30.50;;;1.20;99.90;;;;;;5088216;28;20043;-78
2022/11/27 06:08:40;;;;;;;77.63;27.70;;;1.20;99.90;;;;;;5090948;28;20047;-79
2022/11/27 06:11:09;;;;;;;55.15;25.13;;;1.20;99.90;;;;;;5085052;28;20039;-79
2022/11/27 06:13:35;;;;;;;56.15;26.65;;;1.20;99.90;;;;;;5070617;28;20484;-79
2022/11/27 06:16:16;;;;;;;56.35;26.67;;;1.30;99.90;;;;;;5069507;28;20035;-79
2022/11/27 06:18:43;;;;;;;69.38;27.98;;;1.30;99.90;;;;;;5065408;28;20045;-79
2022/11/27 06:21:12;;;;;;;60.90;26.30;;;1.40;99.90;;;;;;5063980;28;20036;-79
2022/11/27 06:23:38;;;;;;;67.30;28.50;;;1.40;99.90;;;;;;5071455;28;20498;-79
2022/11/27 06:26:16;;;;;;;70.75;27.08;;;1.40;99.90;;;;;;5082197;28;20040;-79
2022/11/27 06:28:43;;;;;;;68.85;28.25;;;1.40;99.90;;;;;;5081481;28;20056;-79
2022/11/27 06:31:15;;;;;;;63.55;26.45;;;1.50;99.90;;;;;;5074205;28;20470;-79
2022/11/27 06:33:41;;;;;;;81.90;28.23;;;1.50;99.90;;;;;;5076048;28;20040;-79
2022/11/27 06:36:08;;;;;;;59.67;26.48;;;1.50;99.90;;;;;;5092518;28;20040;-78
2022/11/27 06:38:36;;;;;;;60.65;24.77;;;1.50;99.90;;;;;;5094436;28;20040;-79
2022/11/27 06:41:05;;;;;;;71.13;28.15;;;1.50;99.90;;;;;;5074441;28;20032;-79
2022/11/27 06:43:32;;;;;;;70.78;27.17;;;1.50;99.90;;;;;;5079049;28;20032;-79
2022/11/27 06:45:59;;;;;;;59.25;25.15;;;1.50;99.90;;;;;;5072565;28;20033;-79
2022/11/27 06:48:26;;;;;;;68.63;26.70;;;1.50;99.90;;;;;;5068850;28;20453;-80
2022/11/27 06:50:52;;;;;;;66.97;27.08;;;1.50;99.90;;;;;;5085985;28;20032;-79
2022/11/27 06:53:18;;;;;;;66.68;26.88;;;1.50;99.90;;;;;;5081011;28;20051;-80
2022/11/27 06:55:45;;;;;;;62.10;26.33;;;1.50;99.90;;;;;;5092861;28;20036;-80
2022/11/27 06:58:11;;;;;;;65.25;27.25;;;1.60;99.90;;;;;;5079653;28;20039;-80
2022/11/27 07:00:37;;;;;;;66.72;27.10;;;1.60;99.90;;;;;;5075027;28;20052;-80
2022/11/27 07:03:03;;;;;;;55.47;25.48;;;1.70;99.90;;;;;;5089151;28;20488;-79
2022/11/27 07:05:29;;;;;;;61.22;26.05;;;1.70;99.90;;;;;;5074122;28;20477;-79
2022/11/27 07:07:57;;;;;;;67.57;26.38;;;1.70;99.90;;;;;;5073846;28;20052;-79
2022/11/27 07:10:23;;;;;;;71.00;27.40;;;1.70;99.90;;;;;;5082414;28;20040;-79
2022/11/27 07:12:50;;;;;;;67.18;27.45;;;1.70;99.90;;;;;;5074206;28;20029;-79
2022/11/27 07:15:16;;;;;;;62.15;28.23;;;1.70;99.90;;;;;;5072317;28;20036;-79
2022/11/27 07:17:42;;;;;;;67.68;27.42;;;1.70;99.90;;;;;;5073602;28;20391;-80
2022/11/27 07:20:08;;;;;;;62.17;25.20;;;1.80;99.90;;;;;;5073934;28;20047;-77
2022/11/27 07:22:35;;;;;;;56.20;25.38;;;1.80;99.90;;;;;;5074505;28;20051;-78
2022/11/27 07:25:01;;;;;;;61.80;26.98;;;1.80;99.90;;;;;;5073804;28;20039;-77
2022/11/27 07:27:27;;;;;;;61.15;26.65;;;1.80;99.90;;;;;;5072794;28;20449;-78
2022/11/27 07:29:53;;;;;;;60.42;27.35;;;1.90;99.90;;;;;;5074417;28;20398;-77
2022/11/27 07:32:19;;;;;;;57.08;26.08;;;1.90;99.90;;;;;;5087572;28;20029;-78
2022/11/27 07:34:45;;;;;;;65.07;26.52;;;1.90;99.90;;;;;;5080304;28;20051;-78
2022/11/27 07:37:11;;;;;;;60.67;25.15;;;2.00;99.90;;;;;;5092962;28;20055;-78
2022/11/27 07:39:37;;;;;;;58.78;25.77;;;1.90;99.90;;;;;;5116794;28;20044;-77
2022/11/27 07:42:04;;;;;;;56.00;25.48;;;2.00;99.90;;;;;;5117129;28;20031;-77
2022/11/27 07:44:30;;;;;;;58.70;25.48;;;2.00;99.90;;;;;;5079855;28;20489;-78
2022/11/27 07:46:56;;;;;;;47.67;23.42;;;2.10;99.90;;;;;;5070758;28;20469;-77
2022/11/27 07:49:22;;;;;;;60.67;26.33;;;2.20;99.90;;;;;;5078385;28;20037;-78
2022/11/27 07:51:48;;;;;;;56.60;25.95;;;2.30;99.90;;;;;;5089972;28;20032;-79
2022/11/27 07:54:14;;;;;;;47.60;24.55;;;2.30;99.90;;;;;;5081733;28;20055;-79
2022/11/27 07:56:40;;;;;;;53.75;25.20;;;2.30;99.90;;;;;;5072043;28;20032;-79
2022/11/27 07:59:06;;;;;;;60.78;31.00;;;2.40;99.90;;;;;;5072468;28;20178;-79
2022/11/27 08:01:33;;;;;;;62.13;26.60;;;2.40;99.90;;;;;;5073923;28;20377;-79
2022/11/27 08:03:59;;;;;;;50.75;24.05;;;2.30;99.90;;;;;;5088565;28;20036;-78
2022/11/27 08:06:26;;;;;;;75.57;39.30;;;2.30;99.90;;;;;;5090576;28;20028;-79
2022/11/27 08:08:55;;;;;;;104.93;48.05;;;2.40;99.90;;;;;;5076191;28;20047;-79
2022/11/27 08:11:28;;;;;;;155.95;74.32;;;2.40;99.90;;;;;;5073715;28;20369;-78
2022/11/27 08:14:00;;;;;;;55.10;27.88;;;2.40;99.90;;;;;;5073657;28;20496;-79
2022/11/27 08:16:27;;;;;;;45.53;23.02;;;2.50;99.90;;;;;;5071655;28;20029;-80
2022/11/27 08:18:53;;;;;;;41.78;21.80;;;2.40;99.90;;;;;;5077207;28;20043;-80
2022/11/27 08:21:20;;;;;;;44.90;21.52;;;2.40;99.90;;;;;;5074194;28;20039;-79
2022/11/27 08:23:46;;;;;;;46.08;22.13;;;2.40;99.90;;;;;;5071169;28;20039;-78
2022/11/27 08:26:12;;;;;;;38.95;21.50;;;2.40;99.90;;;;;;5067582;28;20035;-78
2022/11/27 08:28:40;;;;;;;44.60;21.63;;;2.40;99.90;;;;;;5071583;28;20043;-79
2022/11/27 08:31:08;;;;;;;47.40;22.95;;;2.40;99.90;;;;;;5068386;28;20028;-79
2022/11/27 08:33:34;;;;;;;43.38;22.73;;;2.40;99.90;;;;;;5064543;28;20039;-79
2022/11/27 08:36:01;;;;;;;48.63;23.58;;;2.40;99.90;;;;;;5060089;28;20044;-78
2022/11/27 08:38:27;;;;;;;44.78;21.73;;;2.40;99.90;;;;;;5076135;28;20033;-79
2022/11/27 08:40:59;;;;;;;41.60;22.00;;;2.50;99.90;;;;;;5077164;28;20032;-79
2022/11/27 08:43:26;;;;;;;44.60;24.17;;;2.60;99.90;;;;;;5078490;28;20032;-79
2022/11/27 08:45:53;;;;;;;38.20;21.60;;;2.60;99.90;;;;;;5082270;28;20039;-79
2022/11/27 08:48:19;;;;;;;40.50;22.67;;;2.70;99.90;;;;;;5078387;28;20043;-79
2022/11/27 08:50:46;;;;;;;44.65;22.92;;;2.70;99.90;;;;;;5087865;28;20028;-79
2022/11/27 08:53:13;;;;;;;41.08;22.38;;;2.80;99.90;;;;;;5086820;28;20016;-79
2022/11/27 08:55:39;;;;;;;41.25;22.15;;;2.70;99.90;;;;;;5087986;28;20020;-79
2022/11/27 08:58:05;;;;;;;43.83;22.92;;;2.60;99.90;;;;;;5079731;28;20036;-77
2022/11/27 09:00:33;;;;;;;44.70;22.23;;;2.60;99.90;;;;;;5071412;28;20053;-76
2022/11/27 09:02:59;;;;;;;43.08;23.88;;;2.60;99.90;;;;;;5076916;28;20453;-77
2022/11/27 09:05:27;;;;;;;44.88;23.05;;;2.70;99.90;;;;;;5074153;28;20064;-77
2022/11/27 09:07:53;;;;;;;39.00;21.15;;;2.80;99.90;;;;;;5077504;28;20039;-81
2022/11/27 09:10:19;;;;;;;41.55;22.90;;;3.00;99.90;;;;;;5066481;28;20032;-80
2022/11/27 09:12:47;;;;;;;39.55;20.52;;;3.00;99.90;;;;;;5070282;28;20377;-81
2022/11/27 09:15:14;;;;;;;36.88;23.48;;;3.10;99.90;;;;;;5070001;28;20033;-80
2022/11/27 09:17:40;;;;;;;40.70;22.88;;;3.30;99.90;;;;;;5073157;28;20024;-82
2022/11/27 09:20:07;;;;;;;32.80;20.98;;;3.40;99.90;;;;;;5073546;28;20032;-80
2022/11/27 09:22:34;;;;;;;34.78;20.17;;;3.40;99.90;;;;;;5072402;28;20051;-81
2022/11/27 09:25:01;;;;;;;34.88;19.80;;;3.50;99.90;;;;;;5072585;28;20021;-80
2022/11/27 09:27:27;;;;;;;34.70;19.25;;;3.60;99.90;;;;;;5074526;28;20027;-81
2022/11/27 09:29:53;;;;;;;30.38;19.38;;;3.70;99.90;;;;;;5073654;28;20036;-81
2022/11/27 09:32:21;;;;;;;27.83;18.75;;;3.80;99.90;;;;;;5074959;28;20373;-79
2022/11/27 09:34:50;;;;;;;36.60;24.58;;;3.80;99.90;;;;;;5069032;28;20025;-77
2022/11/27 09:37:16;;;;;;;34.67;21.77;;;3.90;99.90;;;;;;5071589;28;20024;-81
2022/11/27 09:39:42;;;;;;;43.92;28.00;;;4.10;99.90;;;;;;5071665;28;20028;-80
2022/11/27 09:42:17;;;;;;;29.67;20.17;;;4.50;99.90;;;;;;5070834;28;20025;-80
2022/11/27 09:44:47;;;;;;;24.45;16.35;;;4.50;99.90;;;;;;5072010;28;20355;-80
2022/11/27 09:47:27;;;;;;;26.40;15.90;;;4.70;99.90;;;;;;5069918;28;20041;-80
2022/11/27 09:50:02;;;;;;;20.95;14.75;;;4.60;99.90;;;;;;5072006;28;20041;-79
2022/11/27 09:52:37;;;;;;;25.33;16.48;;;4.40;99.90;;;;;;5066588;28;20033;-79
2022/11/27 09:55:16;;;;;;;24.48;16.63;;;4.50;99.90;;;;;;5068012;28;20446;-79
2022/11/27 09:57:49;;;;;;;25.38;16.08;;;4.80;99.90;;;;;;5070473;28;20036;-80
2022/11/27 10:00:17;;;;;;;22.08;14.55;;;4.80;99.60;;;;;;5067033;28;20057;-81
2022/11/27 10:02:44;;;;;;;20.95;13.18;;;4.80;97.60;;;;;;5065726;28;20037;-81
2022/11/27 10:05:42;;;;;;;26.20;13.95;;;4.80;99.50;;;;;;5073406;28;20047;-80
2022/11/27 10:08:30;;;;;;;23.17;15.90;;;4.60;99.90;;;;;;5074431;28;20033;-82
2022/11/27 10:11:23;;;;;;;22.27;14.35;;;4.70;99.90;;;;;;5089109;28;20504;-81
2022/11/27 10:13:55;;;;;;;23.33;15.13;;;4.70;99.90;;;;;;5091701;28;20952;-82
2022/11/27 10:16:40;;;;;;;22.95;14.93;;;4.70;99.90;;;;;;5073922;28;20030;-81
2022/11/27 10:19:34;;;;;;;21.15;14.95;;;4.60;99.90;;;;;;5075226;28;20047;-81
2022/11/27 10:22:04;;;;;;;23.42;14.80;;;4.80;99.90;;;;;;5078934;28;20355;-79
2022/11/27 10:25:02;;;;;;;19.85;13.93;;;4.80;97.90;;;;;;5095813;28;20031;-82
2022/11/27 10:27:50;;;;;;;19.67;13.10;;;4.90;99.10;;;;;;5093574;28;20040;-82
2022/11/27 10:30:19;;;;;;;21.88;13.75;;;4.90;94.70;;;;;;5070822;28;20041;-82
2022/11/27 10:32:51;;;;;;;21.27;13.65;;;5.00;95.90;;;;;;5074815;28;20028;-82
2022/11/27 10:35:18;;;;;;;;;;;5.10;95.50;;;;;;5075414;28;20450;-81
2022/11/27 10:37:55;;;;;;;17.95;12.50;;;5.10;92.70;;;;;;5075951;28;20285;-83
2022/11/27 10:40:37;;;;;;;21.90;13.27;;;5.20;93.90;;;;;;5077855;28;20036;-83
2022/11/27 10:43:23;;;;;;;22.63;13.93;;;5.30;89.60;;;;;;5090861;28;20029;-83
2022/11/27 10:45:57;;;;;;;20.27;13.07;;;5.30;90.90;;;;;;5063346;28;20036;-77
2022/11/27 10:48:28;;;;;;;20.88;12.52;;;5.30;84.60;;;;;;5073445;28;20083;-80
2022/11/27 10:50:55;;;;;;;20.00;13.38;;;5.40;85.10;;;;;;5074019;28;20376;-82
2022/11/27 10:53:36;;;;;;;19.48;11.70;;;5.60;81.30;;;;;;5072949;28;20149;-81
2022/11/27 10:56:12;;;;;;;20.98;14.73;;;6.00;73.00;;;;;;5072614;28;20032;-76
2022/11/27 10:59:03;;;;;;;19.45;12.52;;;6.30;68.10;;;;;;5073544;28;20032;-78
2022/11/27 11:01:46;;;;;;;14.77;8.68;;;6.40;55.20;;;;;;5073419;28;20041;-78
2022/11/27 11:04:14;;;;;;;16.33;10.77;;;6.40;43.70;;;;;;5068819;28;20043;-77
2022/11/27 11:06:44;;;;;;;13.18;10.23;;;6.30;36.50;;;;;;5073179;28;20033;-77
2022/11/27 11:09:22;;;;;;;18.15;10.77;;;6.40;39.20;;;;;;5072895;28;20060;-80
2022/11/27 11:11:49;;;;;;;16.98;11.65;;;6.60;35.70;;;;;;5073916;28;20454;-80
2022/11/27 11:14:24;;;;;;;18.48;12.32;;;6.70;31.20;;;;;;5072190;28;20043;-78
2022/11/27 11:16:53;;;;;;;15.27;11.02;;;6.30;28.60;;;;;;5074197;28;20040;-78
2022/11/27 11:19:31;;;;;;;16.48;11.02;;;6.10;35.80;;;;;;5072947;28;20117;-79
2022/11/27 11:22:09;;;;;;;18.33;11.80;;;6.20;44.60;;;;;;5073544;28;20035;-79
2022/11/27 11:24:40;;;;;;;19.55;11.57;;;6.60;37.00;;;;;;5073631;28;20076;-82
2022/11/27 11:27:12;;;;;;;;;;;6.80;30.40;;;;;;5073458;28;20032;-81
2022/11/27 11:29:52;;;;;;;11.60;9.15;;;7.00;21.50;;;;;;5073819;28;19919;-81
2022/11/27 11:32:34;;;;;;;213.68;98.95;;;7.10;7.50;;;;;;5072654;28;20032;-81
2022/11/27 11:35:22;;;;;;;31.15;14.77;;;7.20;3.20;;;;;;5073242;28;20401;-79
2022/11/27 11:37:49;;;;;;;15.80;9.30;;;7.20;1.00;;;;;;5073623;28;20040;-81
2022/11/27 11:40:18;;;;;;;47.05;22.10;;;7.00;1.00;;;;;;5077259;28;20032;-79
2022/11/27 11:43:01;;;;;;;21.58;12.27;;;7.00;5.70;;;;;;5079247;28;20036;-82
2022/11/27 11:45:30;;;;;;;16.95;9.50;;;7.10;14.60;;;;;;5075456;28;20043;-80
2022/11/27 11:48:23;;;;;;;17.23;8.85;;;7.10;10.80;;;;;;5078031;28;20037;-80
2022/11/27 11:51:01;;;;;;;12.00;6.93;;;7.00;7.20;;;;;;5094315;28;20375;-80
2022/11/27 11:53:33;;;;;;;21.65;11.70;;;7.00;6.10;;;;;;5082383;28;20457;-80
2022/11/27 11:56:30;;;;;;;13.32;8.55;;;7.00;10.20;;;;;;5072444;28;20036;-77
2022/11/27 11:59:32;;;;;;;25.33;14.82;;;7.10;8.80;;;;;;5072631;28;20049;-83
2022/11/27 12:02:14;;;;;;;13.18;9.35;;;7.10;1.00;;;;;;5062652;28;20417;-78
2022/11/27 12:04:40;;;;;;;;;;;7.10;1.00;;;;;;5072807;28;20036;-80
2022/11/27 12:07:39;;;;;;;15.23;9.93;;;7.20;4.10;;;;;;5070609;28;20349;-81
2022/11/27 12:10:35;;;;;;;19.25;11.45;;;7.30;9.40;;;;;;5072132;28;20036;-80
2022/11/27 12:13:01;;;;;;;20.58;13.80;;;7.30;2.50;;;;;;5069051;28;20024;-81
2022/11/27 12:16:05;;;;;;;13.35;9.43;;;7.30;6.80;;;;;;5070062;28;20029;-81
2022/11/27 12:18:44;;;;;;;14.65;8.48;;;7.40;1.00;;;;;;5056799;28;20370;-81
2022/11/27 12:21:16;;;;;;;14.13;8.88;;;7.50;1.00;;;;;;5063995;28;20045;-80
2022/11/27 12:24:06;;;;;;;10.85;8.90;;;7.70;1.00;;;;;;5066350;28;20057;-84
2022/11/27 12:27:14;;;;;;;13.82;9.13;;;7.70;1.00;;;;;;5063751;28;20040;-84
2022/11/27 12:30:09;;;;;;;12.88;8.07;;;7.80;1.00;;;;;;5050558;28;20064;-83
2022/11/27 12:32:44;;;;;;;15.38;8.30;;;7.90;1.00;;;;;;5067792;28;20028;-83
2022/11/27 12:35:22;;;;;;;11.63;7.75;;;7.90;1.00;;;;;;5051993;28;20036;-83
2022/11/27 12:38:31;;;;;;;14.48;9.10;;;8.10;1.00;;;;;;5052326;28;20033;-83
2022/11/27 12:41:20;;;;;;;12.70;7.18;;;8.10;1.00;;;;;;5052445;28;20048;-84
2022/11/27 12:43:51;;;;;;;11.85;8.15;;;8.10;1.00;;;;;;5068235;28;20485;-84
2022/11/27 12:46:21;;;;;;;9.90;7.00;;;8.10;1.00;;;;;;5051541;28;20032;-84
2022/11/27 12:49:08;;;;;;;12.85;7.57;;;8.30;1.00;;;;;;5056472;28;20036;-84
2022/11/27 12:51:57;;;;;;;14.68;7.03;;;8.60;1.00;;;;;;5070801;28;20024;-84
2022/11/27 12:54:36;;;;;;;11.52;7.18;;;8.60;1.00;;;;;;5068475;28;20196;-84
2022/11/27 12:57:14;;;;;;;10.55;5.88;;;8.60;1.00;;;;;;5071805;28;20028;-80
2022/11/27 12:59:52;;;;;;;12.55;7.97;;;8.60;1.00;;;;;;5078997;28;20506;-83
2022/11/27 13:02:25;;;;;;;9.63;7.00;;;8.50;1.00;;;;;;5070773;28;20024;-83